Holeby, Denmark
Current Conditions -  °F | °C
As of 4:50 PM on Friday 31 Oct 2014 (Local Time) from EDHK Reporting Station
Haze Haze  
Wind Chill: 54°   Ceiling: 9800
Heat Index: 54°   Visibility: 2.3mi
Dew Point: 54°   Wind: 5mph
Humidity: 100%   Direction: 150°SSE
Pressure: 30.15"   Gusts: NA
Location:  54.71°N, 11.46°E
Report Text: EDHK 311550Z 15004KT 3700 BR FEW007 OVC098 12/12 Q1021
Loading
Personal Weather Stations






























Interactive Weather Map New forecast layout! Learn more

10-Day Weather Forecast

Advertisements
Track Severe Weather on mobile